sensor_id;sensor_type;location;lat;lon;timestamp;P1;durP1;ratioP1;P2;durP2;ratioP2
3811;SDS011;1921;49.368;11.068;2023-08-24T00:01:40;79.93;;;58.27;;
3811;SDS011;1921;49.368;11.068;2023-08-24T00:04:06;76.57;;;58.50;;
3811;SDS011;1921;49.368;11.068;2023-08-24T00:06:32;78.33;;;58.30;;
3811;SDS011;1921;49.368;11.068;2023-08-24T00:08:58;83.50;;;58.87;;
3811;SDS011;1921;49.368;11.068;2023-08-24T00:11:25;76.07;;;57.90;;
3811;SDS011;1921;49.368;11.068;2023-08-24T00:13:51;78.73;;;58.30;;
3811;SDS011;1921;49.368;11.068;2023-08-24T00:16:17;79.30;;;58.70;;
3811;SDS011;1921;49.368;11.068;2023-08-24T00:18:44;77.40;;;57.50;;
3811;SDS011;1921;49.368;11.068;2023-08-24T00:21:11;78.70;;;59.73;;
3811;SDS011;1921;49.368;11.068;2023-08-24T00:23:38;82.37;;;58.90;;
3811;SDS011;1921;49.368;11.068;2023-08-24T00:26:04;78.70;;;59.33;;
3811;SDS011;1921;49.368;11.068;2023-08-24T00:28:30;76.60;;;59.43;;
3811;SDS011;1921;49.368;11.068;2023-08-24T00:30:55;77.90;;;58.57;;
3811;SDS011;1921;49.368;11.068;2023-08-24T00:33:21;82.53;;;60.23;;
3811;SDS011;1921;49.368;11.068;2023-08-24T00:35:47;83.90;;;59.30;;
3811;SDS011;1921;49.368;11.068;2023-08-24T00:38:12;82.50;;;60.70;;
3811;SDS011;1921;49.368;11.068;2023-08-24T00:40:40;79.60;;;59.87;;
3811;SDS011;1921;49.368;11.068;2023-08-24T00:43:09;83.43;;;60.87;;
3811;SDS011;1921;49.368;11.068;2023-08-24T00:45:35;79.43;;;59.83;;
3811;SDS011;1921;49.368;11.068;2023-08-24T00:48:01;86.83;;;58.60;;
3811;SDS011;1921;49.368;11.068;2023-08-24T00:50:27;81.53;;;58.60;;
3811;SDS011;1921;49.368;11.068;2023-08-24T00:52:53;80.00;;;59.67;;
3811;SDS011;1921;49.368;11.068;2023-08-24T00:55:20;77.70;;;59.97;;
3811;SDS011;1921;49.368;11.068;2023-08-24T00:57:46;80.07;;;59.50;;
3811;SDS011;1921;49.368;11.068;2023-08-24T01:00:13;79.37;;;60.13;;
3811;SDS011;1921;49.368;11.068;2023-08-24T01:02:40;79.87;;;59.10;;
3811;SDS011;1921;49.368;11.068;2023-08-24T01:05:06;79.10;;;60.17;;
3811;SDS011;1921;49.368;11.068;2023-08-24T01:07:35;83.77;;;61.50;;
3811;SDS011;1921;49.368;11.068;2023-08-24T01:10:04;79.20;;;60.00;;
3811;SDS011;1921;49.368;11.068;2023-08-24T01:12:52;80.03;;;61.00;;
3811;SDS011;1921;49.368;11.068;2023-08-24T01:15:37;78.80;;;60.37;;
3811;SDS011;1921;49.368;11.068;2023-08-24T01:18:05;76.97;;;59.53;;
3811;SDS011;1921;49.368;11.068;2023-08-24T01:20:38;83.47;;;61.37;;
3811;SDS011;1921;49.368;11.068;2023-08-24T01:26:04;83.27;;;60.40;;
3811;SDS011;1921;49.368;11.068;2023-08-24T01:28:36;83.13;;;60.60;;
3811;SDS011;1921;49.368;11.068;2023-08-24T01:31:04;81.80;;;61.23;;
3811;SDS011;1921;49.368;11.068;2023-08-24T01:33:30;84.93;;;61.20;;
3811;SDS011;1921;49.368;11.068;2023-08-24T01:35:56;82.63;;;61.97;;
3811;SDS011;1921;49.368;11.068;2023-08-24T01:38:22;82.27;;;62.30;;
3811;SDS011;1921;49.368;11.068;2023-08-24T01:43:35;80.90;;;60.30;;
3811;SDS011;1921;49.368;11.068;2023-08-24T01:46:04;85.40;;;61.07;;
3811;SDS011;1921;49.368;11.068;2023-08-24T01:48:32;84.00;;;61.67;;
3811;SDS011;1921;49.368;11.068;2023-08-24T01:50:58;83.73;;;62.20;;
3811;SDS011;1921;49.368;11.068;2023-08-24T01:53:27;87.20;;;62.40;;
3811;SDS011;1921;49.368;11.068;2023-08-24T01:55:56;85.67;;;62.83;;
3811;SDS011;1921;49.368;11.068;2023-08-24T01:58:22;83.30;;;62.10;;
3811;SDS011;1921;49.368;11.068;2023-08-24T02:00:48;82.83;;;62.13;;
3811;SDS011;1921;49.368;11.068;2023-08-24T02:03:14;82.97;;;62.93;;
3811;SDS011;1921;49.368;11.068;2023-08-24T02:05:40;83.50;;;61.20;;
3811;SDS011;1921;49.368;11.068;2023-08-24T02:08:05;84.30;;;62.60;;
3811;SDS011;1921;49.368;11.068;2023-08-24T02:10:31;80.57;;;61.53;;
3811;SDS011;1921;49.368;11.068;2023-08-24T02:12:57;78.00;;;59.40;;
3811;SDS011;1921;49.368;11.068;2023-08-24T02:15:23;80.13;;;60.20;;
3811;SDS011;1921;49.368;11.068;2023-08-24T02:17:48;77.47;;;59.10;;
3811;SDS011;1921;49.368;11.068;2023-08-24T02:20:14;89.70;;;61.43;;
3811;SDS011;1921;49.368;11.068;2023-08-24T02:22:40;81.33;;;60.57;;
3811;SDS011;1921;49.368;11.068;2023-08-24T02:25:06;85.17;;;62.63;;
3811;SDS011;1921;49.368;11.068;2023-08-24T02:27:34;86.47;;;63.17;;
3811;SDS011;1921;49.368;11.068;2023-08-24T02:30:00;84.30;;;63.30;;
3811;SDS011;1921;49.368;11.068;2023-08-24T02:32:26;85.00;;;63.53;;
3811;SDS011;1921;49.368;11.068;2023-08-24T02:34:51;85.53;;;64.17;;
3811;SDS011;1921;49.368;11.068;2023-08-24T02:37:17;91.13;;;64.97;;
3811;SDS011;1921;49.368;11.068;2023-08-24T02:39:43;85.43;;;62.33;;
3811;SDS011;1921;49.368;11.068;2023-08-24T02:42:09;81.37;;;62.47;;
3811;SDS011;1921;49.368;11.068;2023-08-24T02:44:34;79.40;;;61.57;;
3811;SDS011;1921;49.368;11.068;2023-08-24T02:47:00;85.53;;;62.10;;
3811;SDS011;1921;49.368;11.068;2023-08-24T02:49:26;85.67;;;61.50;;
3811;SDS011;1921;49.368;11.068;2023-08-24T02:51:52;84.50;;;60.70;;
3811;SDS011;1921;49.368;11.068;2023-08-24T02:54:18;84.40;;;61.60;;
3811;SDS011;1921;49.368;11.068;2023-08-24T02:56:44;77.60;;;60.40;;
3811;SDS011;1921;49.368;11.068;2023-08-24T02:59:10;82.87;;;61.47;;
3811;SDS011;1921;49.368;11.068;2023-08-24T03:01:36;81.60;;;61.47;;
3811;SDS011;1921;49.368;11.068;2023-08-24T03:04:03;84.00;;;60.73;;
3811;SDS011;1921;49.368;11.068;2023-08-24T03:06:30;81.60;;;60.77;;
3811;SDS011;1921;49.368;11.068;2023-08-24T03:08:55;81.80;;;61.70;;
3811;SDS011;1921;49.368;11.068;2023-08-24T03:11:21;100.73;;;60.67;;
3811;SDS011;1921;49.368;11.068;2023-08-24T03:13:47;84.47;;;62.57;;
3811;SDS011;1921;49.368;11.068;2023-08-24T03:16:13;84.20;;;64.40;;
3811;SDS011;1921;49.368;11.068;2023-08-24T03:18:39;83.77;;;62.63;;
3811;SDS011;1921;49.368;11.068;2023-08-24T03:21:05;84.83;;;63.90;;
3811;SDS011;1921;49.368;11.068;2023-08-24T03:23:31;86.70;;;64.40;;
3811;SDS011;1921;49.368;11.068;2023-08-24T03:25:57;83.43;;;61.83;;
3811;SDS011;1921;49.368;11.068;2023-08-24T03:28:23;83.00;;;60.10;;
3811;SDS011;1921;49.368;11.068;2023-08-24T03:30:52;85.03;;;62.00;;
3811;SDS011;1921;49.368;11.068;2023-08-24T03:33:20;87.73;;;63.30;;
3811;SDS011;1921;49.368;11.068;2023-08-24T03:35:46;81.57;;;62.80;;
3811;SDS011;1921;49.368;11.068;2023-08-24T03:38:13;84.43;;;61.30;;
3811;SDS011;1921;49.368;11.068;2023-08-24T03:40:39;84.90;;;63.40;;
3811;SDS011;1921;49.368;11.068;2023-08-24T03:43:04;87.93;;;64.47;;
3811;SDS011;1921;49.368;11.068;2023-08-24T03:45:30;88.03;;;62.80;;
3811;SDS011;1921;49.368;11.068;2023-08-24T03:47:56;83.67;;;62.40;;
3811;SDS011;1921;49.368;11.068;2023-08-24T03:50:22;86.33;;;64.27;;
3811;SDS011;1921;49.368;11.068;2023-08-24T03:52:49;84.70;;;62.10;;
3811;SDS011;1921;49.368;11.068;2023-08-24T03:55:15;85.10;;;62.40;;
3811;SDS011;1921;49.368;11.068;2023-08-24T03:57:41;88.03;;;64.97;;
3811;SDS011;1921;49.368;11.068;2023-08-24T04:00:07;93.10;;;63.70;;
3811;SDS011;1921;49.368;11.068;2023-08-24T04:02:40;90.73;;;62.47;;
3811;SDS011;1921;49.368;11.068;2023-08-24T04:05:09;87.40;;;62.90;;
3811;SDS011;1921;49.368;11.068;2023-08-24T04:07:35;92.40;;;64.47;;
3811;SDS011;1921;49.368;11.068;2023-08-24T04:10:03;90.20;;;62.70;;
3811;SDS011;1921;49.368;11.068;2023-08-24T04:12:32;85.53;;;61.70;;
3811;SDS011;1921;49.368;11.068;2023-08-24T04:14:58;87.43;;;62.00;;
3811;SDS011;1921;49.368;11.068;2023-08-24T04:17:24;84.07;;;60.67;;
3811;SDS011;1921;49.368;11.068;2023-08-24T04:19:50;86.93;;;61.80;;
3811;SDS011;1921;49.368;11.068;2023-08-24T04:22:17;86.07;;;61.70;;
3811;SDS011;1921;49.368;11.068;2023-08-24T04:24:43;79.80;;;61.63;;
3811;SDS011;1921;49.368;11.068;2023-08-24T04:27:08;80.80;;;61.90;;
3811;SDS011;1921;49.368;11.068;2023-08-24T04:29:34;82.43;;;61.27;;
3811;SDS011;1921;49.368;11.068;2023-08-24T04:32:00;81.93;;;62.23;;
3811;SDS011;1921;49.368;11.068;2023-08-24T04:34:26;82.97;;;61.20;;
3811;SDS011;1921;49.368;11.068;2023-08-24T04:36:52;84.27;;;62.43;;
3811;SDS011;1921;49.368;11.068;2023-08-24T04:39:17;82.33;;;61.70;;
3811;SDS011;1921;49.368;11.068;2023-08-24T04:41:46;88.40;;;61.20;;
3811;SDS011;1921;49.368;11.068;2023-08-24T04:44:11;84.70;;;61.73;;
3811;SDS011;1921;49.368;11.068;2023-08-24T04:46:37;81.73;;;60.40;;
3811;SDS011;1921;49.368;11.068;2023-08-24T04:49:03;81.63;;;60.33;;
3811;SDS011;1921;49.368;11.068;2023-08-24T04:51:29;83.57;;;59.97;;
3811;SDS011;1921;49.368;11.068;2023-08-24T04:53:54;78.97;;;60.00;;
3811;SDS011;1921;49.368;11.068;2023-08-24T04:56:20;79.37;;;59.60;;
3811;SDS011;1921;49.368;11.068;2023-08-24T04:58:56;86.90;;;61.00;;
3811;SDS011;1921;49.368;11.068;2023-08-24T05:01:26;84.37;;;60.07;;
3811;SDS011;1921;49.368;11.068;2023-08-24T05:03:52;82.80;;;59.63;;
3811;SDS011;1921;49.368;11.068;2023-08-24T05:06:19;85.83;;;60.57;;
3811;SDS011;1921;49.368;11.068;2023-08-24T05:08:45;79.90;;;59.80;;
3811;SDS011;1921;49.368;11.068;2023-08-24T05:11:12;81.20;;;59.97;;
3811;SDS011;1921;49.368;11.068;2023-08-24T05:13:58;82.00;;;59.57;;
3811;SDS011;1921;49.368;11.068;2023-08-24T05:16:24;78.87;;;59.23;;
3811;SDS011;1921;49.368;11.068;2023-08-24T05:18:50;77.63;;;58.07;;
3811;SDS011;1921;49.368;11.068;2023-08-24T05:21:15;79.57;;;58.80;;
3811;SDS011;1921;49.368;11.068;2023-08-24T05:23:41;76.93;;;58.30;;
3811;SDS011;1921;49.368;11.068;2023-08-24T05:26:07;78.07;;;58.50;;
3811;SDS011;1921;49.368;11.068;2023-08-24T05:28:33;82.20;;;59.23;;
3811;SDS011;1921;49.368;11.068;2023-08-24T05:30:58;81.43;;;59.17;;
3811;SDS011;1921;49.368;11.068;2023-08-24T05:33:25;81.80;;;59.10;;
3811;SDS011;1921;49.368;11.068;2023-08-24T05:35:52;78.63;;;58.50;;
3811;SDS011;1921;49.368;11.068;2023-08-24T05:38:18;82.20;;;59.00;;
3811;SDS011;1921;49.368;11.068;2023-08-24T05:40:45;80.97;;;59.57;;
3811;SDS011;1921;49.368;11.068;2023-08-24T05:43:13;82.00;;;58.30;;
3811;SDS011;1921;49.368;11.068;2023-08-24T05:45:39;78.87;;;58.13;;
3811;SDS011;1921;49.368;11.068;2023-08-24T05:48:06;79.67;;;58.27;;
3811;SDS011;1921;49.368;11.068;2023-08-24T05:50:32;82.43;;;60.43;;
3811;SDS011;1921;49.368;11.068;2023-08-24T05:52:59;77.37;;;57.67;;
3811;SDS011;1921;49.368;11.068;2023-08-24T05:55:25;81.83;;;59.07;;
3811;SDS011;1921;49.368;11.068;2023-08-24T05:57:51;79.50;;;59.23;;
3811;SDS011;1921;49.368;11.068;2023-08-24T06:00:17;81.57;;;59.37;;
3811;SDS011;1921;49.368;11.068;2023-08-24T06:02:43;78.80;;;58.50;;
3811;SDS011;1921;49.368;11.068;2023-08-24T06:05:08;77.33;;;57.87;;
3811;SDS011;1921;49.368;11.068;2023-08-24T06:07:35;75.73;;;57.97;;
3811;SDS011;1921;49.368;11.068;2023-08-24T06:10:01;77.17;;;58.63;;
3811;SDS011;1921;49.368;11.068;2023-08-24T06:12:27;78.93;;;57.70;;
3811;SDS011;1921;49.368;11.068;2023-08-24T06:14:52;77.00;;;58.47;;
3811;SDS011;1921;49.368;11.068;2023-08-24T06:17:18;81.10;;;58.50;;
3811;SDS011;1921;49.368;11.068;2023-08-24T06:19:44;81.67;;;59.17;;
3811;SDS011;1921;49.368;11.068;2023-08-24T06:22:10;80.23;;;59.13;;
3811;SDS011;1921;49.368;11.068;2023-08-24T06:24:35;82.77;;;59.93;;
3811;SDS011;1921;49.368;11.068;2023-08-24T06:27:01;80.20;;;58.50;;
3811;SDS011;1921;49.368;11.068;2023-08-24T06:29:28;80.37;;;59.27;;
3811;SDS011;1921;49.368;11.068;2023-08-24T06:31:54;78.30;;;58.50;;
3811;SDS011;1921;49.368;11.068;2023-08-24T06:34:20;83.63;;;58.83;;
3811;SDS011;1921;49.368;11.068;2023-08-24T06:36:46;82.77;;;58.27;;
3811;SDS011;1921;49.368;11.068;2023-08-24T06:39:12;76.43;;;58.00;;
3811;SDS011;1921;49.368;11.068;2023-08-24T06:41:38;78.03;;;57.80;;
3811;SDS011;1921;49.368;11.068;2023-08-24T06:44:04;75.00;;;57.27;;
3811;SDS011;1921;49.368;11.068;2023-08-24T06:46:30;79.53;;;57.80;;
3811;SDS011;1921;49.368;11.068;2023-08-24T06:48:56;79.93;;;59.27;;
3811;SDS011;1921;49.368;11.068;2023-08-24T06:51:22;78.57;;;58.33;;
3811;SDS011;1921;49.368;11.068;2023-08-24T06:53:47;89.70;;;58.90;;
3811;SDS011;1921;49.368;11.068;2023-08-24T06:56:13;80.37;;;59.40;;
3811;SDS011;1921;49.368;11.068;2023-08-24T06:58:45;79.00;;;58.50;;
3811;SDS011;1921;49.368;11.068;2023-08-24T07:01:12;80.10;;;58.43;;
3811;SDS011;1921;49.368;11.068;2023-08-24T07:03:38;84.53;;;58.80;;
3811;SDS011;1921;49.368;11.068;2023-08-24T07:06:07;79.83;;;58.30;;
3811;SDS011;1921;49.368;11.068;2023-08-24T07:08:33;82.23;;;60.10;;
3811;SDS011;1921;49.368;11.068;2023-08-24T07:11:00;78.70;;;58.97;;
3811;SDS011;1921;49.368;11.068;2023-08-24T07:13:27;82.80;;;59.17;;
3811;SDS011;1921;49.368;11.068;2023-08-24T07:15:53;80.07;;;59.40;;
3811;SDS011;1921;49.368;11.068;2023-08-24T07:18:20;78.80;;;58.60;;
3811;SDS011;1921;49.368;11.068;2023-08-24T07:20:46;78.77;;;59.37;;
3811;SDS011;1921;49.368;11.068;2023-08-24T07:23:12;84.73;;;60.73;;
3811;SDS011;1921;49.368;11.068;2023-08-24T07:25:38;85.53;;;59.30;;
3811;SDS011;1921;49.368;11.068;2023-08-24T07:28:03;82.90;;;60.57;;
3811;SDS011;1921;49.368;11.068;2023-08-24T07:30:30;84.60;;;59.77;;
3811;SDS011;1921;49.368;11.068;2023-08-24T07:32:57;82.00;;;59.00;;
3811;SDS011;1921;49.368;11.068;2023-08-24T07:35:22;78.53;;;55.93;;
3811;SDS011;1921;49.368;11.068;2023-08-24T07:37:52;79.73;;;58.53;;
3811;SDS011;1921;49.368;11.068;2023-08-24T07:40:18;78.47;;;58.43;;
3811;SDS011;1921;49.368;11.068;2023-08-24T07:42:45;80.00;;;58.53;;
3811;SDS011;1921;49.368;11.068;2023-08-24T07:45:12;79.07;;;58.90;;
3811;SDS011;1921;49.368;11.068;2023-08-24T07:47:39;78.27;;;58.03;;
3811;SDS011;1921;49.368;11.068;2023-08-24T07:50:06;85.47;;;59.60;;
3811;SDS011;1921;49.368;11.068;2023-08-24T07:52:33;85.93;;;60.47;;
3811;SDS011;1921;49.368;11.068;2023-08-24T07:54:59;80.30;;;58.63;;
3811;SDS011;1921;49.368;11.068;2023-08-24T07:57:28;83.37;;;58.90;;
3811;SDS011;1921;49.368;11.068;2023-08-24T07:59:54;85.63;;;59.10;;
3811;SDS011;1921;49.368;11.068;2023-08-24T08:02:19;92.90;;;60.07;;
3811;SDS011;1921;49.368;11.068;2023-08-24T08:04:45;86.73;;;58.67;;
3811;SDS011;1921;49.368;11.068;2023-08-24T08:07:11;82.37;;;58.90;;
3811;SDS011;1921;49.368;11.068;2023-08-24T08:09:37;81.77;;;58.50;;
3811;SDS011;1921;49.368;11.068;2023-08-24T08:12:03;82.80;;;58.60;;
3811;SDS011;1921;49.368;11.068;2023-08-24T08:14:30;85.07;;;60.30;;
3811;SDS011;1921;49.368;11.068;2023-08-24T08:16:56;84.20;;;59.10;;
3811;SDS011;1921;49.368;11.068;2023-08-24T08:19:22;83.57;;;59.67;;
3811;SDS011;1921;49.368;11.068;2023-08-24T08:21:50;87.07;;;59.70;;
3811;SDS011;1921;49.368;11.068;2023-08-24T08:24:16;87.40;;;59.80;;
3811;SDS011;1921;49.368;11.068;2023-08-24T08:26:42;81.07;;;59.90;;
3811;SDS011;1921;49.368;11.068;2023-08-24T08:29:08;82.43;;;59.13;;
3811;SDS011;1921;49.368;11.068;2023-08-24T08:31:33;85.13;;;59.50;;
3811;SDS011;1921;49.368;11.068;2023-08-24T08:33:59;87.53;;;59.30;;
3811;SDS011;1921;49.368;11.068;2023-08-24T08:36:25;80.93;;;58.17;;
3811;SDS011;1921;49.368;11.068;2023-08-24T08:38:50;90.53;;;58.90;;
3811;SDS011;1921;49.368;11.068;2023-08-24T08:41:17;80.47;;;57.77;;
3811;SDS011;1921;49.368;11.068;2023-08-24T08:43:47;83.30;;;59.03;;
3811;SDS011;1921;49.368;11.068;2023-08-24T08:46:14;85.87;;;59.63;;
3811;SDS011;1921;49.368;11.068;2023-08-24T08:48:41;82.50;;;58.90;;
3811;SDS011;1921;49.368;11.068;2023-08-24T08:51:10;77.93;;;57.73;;
3811;SDS011;1921;49.368;11.068;2023-08-24T08:53:36;77.73;;;54.93;;
3811;SDS011;1921;49.368;11.068;2023-08-24T08:56:02;74.80;;;55.30;;
3811;SDS011;1921;49.368;11.068;2023-08-24T08:58:29;82.43;;;57.60;;
3811;SDS011;1921;49.368;11.068;2023-08-24T09:00:56;77.60;;;57.67;;
3811;SDS011;1921;49.368;11.068;2023-08-24T09:03:25;80.47;;;57.77;;
3811;SDS011;1921;49.368;11.068;2023-08-24T09:05:52;76.97;;;55.83;;
3811;SDS011;1921;49.368;11.068;2023-08-24T09:08:18;75.80;;;55.47;;
3811;SDS011;1921;49.368;11.068;2023-08-24T09:10:45;74.83;;;55.20;;
3811;SDS011;1921;49.368;11.068;2023-08-24T09:13:10;78.57;;;57.27;;
3811;SDS011;1921;49.368;11.068;2023-08-24T09:15:37;78.07;;;57.03;;
3811;SDS011;1921;49.368;11.068;2023-08-24T09:18:03;79.67;;;56.80;;
3811;SDS011;1921;49.368;11.068;2023-08-24T09:20:29;76.60;;;56.42;;
3811;SDS011;1921;49.368;11.068;2023-08-24T09:22:55;79.18;;;57.22;;
3811;SDS011;1921;49.368;11.068;2023-08-24T09:25:23;78.25;;;57.17;;
3811;SDS011;1921;49.368;11.068;2023-08-24T09:28:02;77.40;;;55.88;;
3811;SDS011;1921;49.368;11.068;2023-08-24T09:30:32;79.63;;;56.88;;
3811;SDS011;1921;49.368;11.068;2023-08-24T09:33:01;80.07;;;56.75;;
3811;SDS011;1921;49.368;11.068;2023-08-24T09:35:35;77.13;;;56.47;;
3811;SDS011;1921;49.368;11.068;2023-08-24T09:38:18;75.43;;;56.20;;
3811;SDS011;1921;49.368;11.068;2023-08-24T09:40:51;77.32;;;55.85;;
3811;SDS011;1921;49.368;11.068;2023-08-24T09:43:19;75.00;;;56.45;;
3811;SDS011;1921;49.368;11.068;2023-08-24T09:45:57;77.85;;;58.08;;
3811;SDS011;1921;49.368;11.068;2023-08-24T09:48:24;77.37;;;56.60;;
3811;SDS011;1921;49.368;11.068;2023-08-24T09:50:50;74.53;;;55.67;;
3811;SDS011;1921;49.368;11.068;2023-08-24T09:55:53;81.55;;;56.35;;
3811;SDS011;1921;49.368;11.068;2023-08-24T09:58:23;79.75;;;56.28;;
3811;SDS011;1921;49.368;11.068;2023-08-24T10:00:50;78.75;;;56.58;;
3811;SDS011;1921;49.368;11.068;2023-08-24T10:03:21;80.75;;;57.20;;
3811;SDS011;1921;49.368;11.068;2023-08-24T10:05:51;78.55;;;57.40;;
3811;SDS011;1921;49.368;11.068;2023-08-24T10:08:21;79.05;;;56.97;;
3811;SDS011;1921;49.368;11.068;2023-08-24T10:10:55;86.75;;;57.50;;
3811;SDS011;1921;49.368;11.068;2023-08-24T10:13:27;77.72;;;57.38;;
3811;SDS011;1921;49.368;11.068;2023-08-24T10:16:00;78.53;;;56.95;;
3811;SDS011;1921;49.368;11.068;2023-08-24T10:18:28;74.68;;;55.85;;
3811;SDS011;1921;49.368;11.068;2023-08-24T10:20:54;78.28;;;56.17;;
3811;SDS011;1921;49.368;11.068;2023-08-24T10:23:22;73.93;;;54.50;;
3811;SDS011;1921;49.368;11.068;2023-08-24T10:25:49;76.47;;;56.65;;
3811;SDS011;1921;49.368;11.068;2023-08-24T10:28:17;78.75;;;56.33;;
3811;SDS011;1921;49.368;11.068;2023-08-24T10:30:44;77.00;;;56.70;;
3811;SDS011;1921;49.368;11.068;2023-08-24T10:33:13;76.53;;;56.90;;
3811;SDS011;1921;49.368;11.068;2023-08-24T10:35:40;76.35;;;56.88;;
3811;SDS011;1921;49.368;11.068;2023-08-24T10:38:07;74.20;;;55.47;;
3811;SDS011;1921;49.368;11.068;2023-08-24T10:40:33;79.03;;;56.50;;
3811;SDS011;1921;49.368;11.068;2023-08-24T10:43:03;75.82;;;56.45;;
3811;SDS011;1921;49.368;11.068;2023-08-24T10:48:22;76.95;;;56.17;;
3811;SDS011;1921;49.368;11.068;2023-08-24T10:51:32;77.50;;;57.30;;
3811;SDS011;1921;49.368;11.068;2023-08-24T10:53:44;78.80;;;56.35;;
3811;SDS011;1921;49.368;11.068;2023-08-24T10:56:11;75.50;;;55.13;;
3811;SDS011;1921;49.368;11.068;2023-08-24T10:58:39;79.72;;;57.60;;
3811;SDS011;1921;49.368;11.068;2023-08-24T11:01:05;80.97;;;56.85;;
3811;SDS011;1921;49.368;11.068;2023-08-24T11:03:31;76.18;;;57.28;;
3811;SDS011;1921;49.368;11.068;2023-08-24T11:05:58;75.65;;;56.13;;
3811;SDS011;1921;49.368;11.068;2023-08-24T11:11:20;78.65;;;56.38;;
3811;SDS011;1921;49.368;11.068;2023-08-24T11:14:12;75.93;;;56.72;;
3811;SDS011;1921;49.368;11.068;2023-08-24T11:16:51;80.70;;;56.83;;
3811;SDS011;1921;49.368;11.068;2023-08-24T11:19:17;80.45;;;57.70;;
3811;SDS011;1921;49.368;11.068;2023-08-24T11:21:44;83.03;;;56.85;;
3811;SDS011;1921;49.368;11.068;2023-08-24T11:24:14;80.95;;;57.40;;
3811;SDS011;1921;49.368;11.068;2023-08-24T11:26:42;77.55;;;56.88;;
3811;SDS011;1921;49.368;11.068;2023-08-24T11:29:11;77.65;;;57.38;;
3811;SDS011;1921;49.368;11.068;2023-08-24T11:31:37;77.18;;;57.15;;
3811;SDS011;1921;49.368;11.068;2023-08-24T11:34:04;78.63;;;57.80;;
3811;SDS011;1921;49.368;11.068;2023-08-24T11:36:32;78.57;;;57.63;;
3811;SDS011;1921;49.368;11.068;2023-08-24T11:39:18;78.53;;;57.90;;
3811;SDS011;1921;49.368;11.068;2023-08-24T11:47:13;78.35;;;58.13;;
3811;SDS011;1921;49.368;11.068;2023-08-24T11:49:39;84.07;;;58.03;;
3811;SDS011;1921;49.368;11.068;2023-08-24T11:52:05;77.63;;;57.78;;
3811;SDS011;1921;49.368;11.068;2023-08-24T11:54:35;79.78;;;57.60;;
3811;SDS011;1921;49.368;11.068;2023-08-24T11:57:08;79.57;;;57.63;;
3811;SDS011;1921;49.368;11.068;2023-08-24T11:59:34;77.63;;;57.58;;
3811;SDS011;1921;49.368;11.068;2023-08-24T12:02:01;78.63;;;57.55;;
3811;SDS011;1921;49.368;11.068;2023-08-24T12:04:37;76.68;;;58.00;;
3811;SDS011;1921;49.368;11.068;2023-08-24T12:07:13;82.82;;;58.08;;
3811;SDS011;1921;49.368;11.068;2023-08-24T12:09:40;80.47;;;58.40;;
3811;SDS011;1921;49.368;11.068;2023-08-24T12:12:17;83.95;;;57.70;;
3811;SDS011;1921;49.368;11.068;2023-08-24T12:14:45;76.53;;;57.72;;
3811;SDS011;1921;49.368;11.068;2023-08-24T12:17:13;76.55;;;56.65;;
3811;SDS011;1921;49.368;11.068;2023-08-24T12:19:57;82.55;;;56.28;;
3811;SDS011;1921;49.368;11.068;2023-08-24T12:22:31;79.88;;;57.40;;
3811;SDS011;1921;49.368;11.068;2023-08-24T12:24:57;76.93;;;56.97;;
3811;SDS011;1921;49.368;11.068;2023-08-24T12:27:24;76.53;;;56.65;;
3811;SDS011;1921;49.368;11.068;2023-08-24T12:29:53;80.07;;;57.47;;
3811;SDS011;1921;49.368;11.068;2023-08-24T12:32:20;75.57;;;56.55;;
3811;SDS011;1921;49.368;11.068;2023-08-24T12:34:50;79.30;;;57.38;;
3811;SDS011;1921;49.368;11.068;2023-08-24T12:37:19;77.25;;;57.03;;
3811;SDS011;1921;49.368;11.068;2023-08-24T12:39:45;77.47;;;57.25;;
3811;SDS011;1921;49.368;11.068;2023-08-24T12:42:11;75.97;;;57.15;;
3811;SDS011;1921;49.368;11.068;2023-08-24T12:44:37;77.47;;;57.45;;
3811;SDS011;1921;49.368;11.068;2023-08-24T12:47:02;77.38;;;57.38;;
3811;SDS011;1921;49.368;11.068;2023-08-24T12:49:28;79.65;;;57.67;;
3811;SDS011;1921;49.368;11.068;2023-08-24T12:51:54;78.72;;;58.10;;
3811;SDS011;1921;49.368;11.068;2023-08-24T12:54:20;80.68;;;58.50;;
3811;SDS011;1921;49.368;11.068;2023-08-24T12:56:46;79.00;;;57.90;;
3811;SDS011;1921;49.368;11.068;2023-08-24T12:59:12;80.97;;;58.50;;
3811;SDS011;1921;49.368;11.068;2023-08-24T13:01:37;76.82;;;57.78;;
3811;SDS011;1921;49.368;11.068;2023-08-24T13:04:04;78.38;;;58.03;;
3811;SDS011;1921;49.368;11.068;2023-08-24T13:06:30;76.88;;;57.72;;
3811;SDS011;1921;49.368;11.068;2023-08-24T13:08:56;75.72;;;56.95;;
3811;SDS011;1921;49.368;11.068;2023-08-24T13:11:21;76.82;;;57.70;;
3811;SDS011;1921;49.368;11.068;2023-08-24T13:13:47;79.68;;;58.08;;
3811;SDS011;1921;49.368;11.068;2023-08-24T13:16:14;82.05;;;58.00;;
3811;SDS011;1921;49.368;11.068;2023-08-24T13:18:40;78.72;;;58.30;;
3811;SDS011;1921;49.368;11.068;2023-08-24T13:21:07;78.15;;;57.85;;
3811;SDS011;1921;49.368;11.068;2023-08-24T13:23:33;76.85;;;58.17;;
3811;SDS011;1921;49.368;11.068;2023-08-24T13:25:58;87.32;;;58.25;;
3811;SDS011;1921;49.368;11.068;2023-08-24T13:28:25;77.40;;;57.42;;
3811;SDS011;1921;49.368;11.068;2023-08-24T13:30:51;81.13;;;57.65;;
3811;SDS011;1921;49.368;11.068;2023-08-24T13:33:17;79.95;;;57.75;;
3811;SDS011;1921;49.368;11.068;2023-08-24T13:35:45;77.30;;;58.03;;
3811;SDS011;1921;49.368;11.068;2023-08-24T13:38:11;80.88;;;58.00;;
3811;SDS011;1921;49.368;11.068;2023-08-24T13:40:37;79.93;;;57.92;;
3811;SDS011;1921;49.368;11.068;2023-08-24T13:43:03;83.63;;;58.17;;
3811;SDS011;1921;49.368;11.068;2023-08-24T13:45:29;76.90;;;57.70;;
3811;SDS011;1921;49.368;11.068;2023-08-24T13:47:56;79.18;;;57.65;;
3811;SDS011;1921;49.368;11.068;2023-08-24T13:50:22;79.95;;;57.75;;
3811;SDS011;1921;49.368;11.068;2023-08-24T13:52:48;77.60;;;57.63;;
3811;SDS011;1921;49.368;11.068;2023-08-24T13:55:14;79.43;;;58.05;;
3811;SDS011;1921;49.368;11.068;2023-08-24T13:57:41;77.13;;;57.47;;
3811;SDS011;1921;49.368;11.068;2023-08-24T14:00:08;76.80;;;57.13;;
3811;SDS011;1921;49.368;11.068;2023-08-24T14:02:34;76.80;;;57.30;;
3811;SDS011;1921;49.368;11.068;2023-08-24T14:05:00;77.78;;;57.78;;
3811;SDS011;1921;49.368;11.068;2023-08-24T14:07:25;80.07;;;58.30;;
3811;SDS011;1921;49.368;11.068;2023-08-24T14:09:51;78.85;;;57.95;;
3811;SDS011;1921;49.368;11.068;2023-08-24T14:12:17;78.30;;;57.38;;
3811;SDS011;1921;49.368;11.068;2023-08-24T14:14:42;81.00;;;58.40;;
3811;SDS011;1921;49.368;11.068;2023-08-24T14:17:08;78.45;;;58.38;;
3811;SDS011;1921;49.368;11.068;2023-08-24T14:19:34;79.68;;;58.25;;
3811;SDS011;1921;49.368;11.068;2023-08-24T14:22:00;81.40;;;58.15;;
3811;SDS011;1921;49.368;11.068;2023-08-24T14:24:25;78.45;;;58.58;;
3811;SDS011;1921;49.368;11.068;2023-08-24T14:26:51;80.65;;;58.65;;
3811;SDS011;1921;49.368;11.068;2023-08-24T14:29:17;77.75;;;58.35;;
3811;SDS011;1921;49.368;11.068;2023-08-24T14:31:42;82.55;;;58.92;;
3811;SDS011;1921;49.368;11.068;2023-08-24T14:34:08;79.18;;;57.42;;
3811;SDS011;1921;49.368;11.068;2023-08-24T14:36:34;78.15;;;58.55;;
3811;SDS011;1921;49.368;11.068;2023-08-24T14:39:00;79.22;;;58.30;;
3811;SDS011;1921;49.368;11.068;2023-08-24T14:41:26;77.72;;;57.83;;
3811;SDS011;1921;49.368;11.068;2023-08-24T14:43:51;77.22;;;58.05;;
3811;SDS011;1921;49.368;11.068;2023-08-24T14:46:17;80.60;;;57.63;;
3811;SDS011;1921;49.368;11.068;2023-08-24T14:48:43;77.97;;;58.20;;
3811;SDS011;1921;49.368;11.068;2023-08-24T14:51:09;75.97;;;57.88;;
3811;SDS011;1921;49.368;11.068;2023-08-24T14:53:34;79.85;;;58.08;;